Encruzilhada, Brazil
Current Conditions -  °F | °C
As of 1:00 PM on Monday 24 Nov 2014 (Local Time) from SBQV Reporting Station
Scattered Clouds Scattered Clouds  
Wind Chill: 27°   Ceiling: Unl
Heat Index: 28°   Visibility: 6mi
Dew Point: 19°   Wind: 5mph
Humidity: 61%   Direction: 40°NE
Pressure: 30.09"   Gusts: NA
Location:  15.53°S, 40.91°W
Report Text: SBQV 241600Z 04004KT 9999 SCT016 SCT070 27/19 Q1019
Loading
Personal Weather Stations






























Interactive Weather Map New forecast layout! Learn more

10-Day Weather Forecast

Advertisements
Track Severe Weather on mobile